createdAt,value
2019-02-05T00:00:39.628Z,43.24
2019-02-05T00:01:39.633Z,43.99
2019-02-05T00:02:39.641Z,43.71
2019-02-05T00:03:39.644Z,44.18
2019-02-05T00:04:39.650Z,44.56
2019-02-05T00:05:39.650Z,45.13
2019-02-05T00:06:39.657Z,44.46
2019-02-05T00:07:39.661Z,45.13
2019-02-05T00:08:39.669Z,45.22
2019-02-05T00:09:39.669Z,45.50
2019-02-05T00:10:39.672Z,45.32
2019-02-05T00:11:39.679Z,45.79
2019-02-05T00:12:39.683Z,46.07
2019-02-05T00:13:39.687Z,46.55
2019-02-05T00:14:39.690Z,45.22
2019-02-05T00:15:39.694Z,44.18
2019-02-05T00:16:39.751Z,43.80
2019-02-05T00:17:39.704Z,42.77
2019-02-05T00:18:39.710Z,42.30
2019-02-05T00:19:39.714Z,42.67
2019-02-05T00:20:39.721Z,42.67
2019-02-05T00:21:39.721Z,42.77
2019-02-05T00:22:39.726Z,43.80
2019-02-05T00:23:39.730Z,44.46
2019-02-05T00:24:39.737Z,45.50
2019-02-05T00:25:39.741Z,45.41
2019-02-05T00:26:39.747Z,45.60
2019-02-05T00:27:39.750Z,45.13
2019-02-05T00:28:39.752Z,45.03
2019-02-05T00:29:39.756Z,45.03
2019-02-05T00:30:39.766Z,44.56
2019-02-05T00:31:39.766Z,44.18
2019-02-05T00:32:39.773Z,43.24
2019-02-05T00:33:39.773Z,42.96
2019-02-05T00:34:39.780Z,42.39
2019-02-05T00:35:39.785Z,41.54
2019-02-05T00:36:39.789Z,42.01
2019-02-05T00:37:39.800Z,43.05
2019-02-05T00:38:39.799Z,42.86
2019-02-05T00:39:39.801Z,42.77
2019-02-05T00:40:39.803Z,43.05
2019-02-05T00:41:39.811Z,42.96
2019-02-05T00:42:39.814Z,42.39
2019-02-05T00:43:39.825Z,42.39
2019-02-05T00:44:39.824Z,42.20
2019-02-05T00:45:39.827Z,42.20
2019-02-05T00:46:39.832Z,41.92
2019-02-05T00:47:39.836Z,42.30
2019-02-05T00:48:39.839Z,42.86
2019-02-05T00:49:39.844Z,42.77
2019-02-05T00:50:39.848Z,42.86
2019-02-05T00:51:39.856Z,43.05
2019-02-05T00:52:39.856Z,43.52
2019-02-05T00:53:39.864Z,43.15
2019-02-05T00:54:39.871Z,43.15
2019-02-05T00:55:39.874Z,43.15
2019-02-05T00:56:39.875Z,42.77
2019-02-05T00:57:39.881Z,43.15
2019-02-05T00:58:39.886Z,42.77
2019-02-05T00:59:39.887Z,43.15
2019-02-05T01:00:39.892Z,43.52
2019-02-05T01:01:39.896Z,43.80
2019-02-05T01:02:39.900Z,44.46
2019-02-05T01:03:39.904Z,44.27
2019-02-05T01:04:39.914Z,44.46
2019-02-05T01:05:39.915Z,44.46
2019-02-05T01:06:39.922Z,44.37
2019-02-05T01:07:39.925Z,43.80
2019-02-05T01:08:39.927Z,44.37
2019-02-05T01:09:39.936Z,44.37
2019-02-05T01:10:39.937Z,44.46
2019-02-05T01:11:39.943Z,44.09
2019-02-05T01:12:39.943Z,44.37
2019-02-05T01:13:39.948Z,44.37
2019-02-05T01:14:39.955Z,44.37
2019-02-05T01:15:39.959Z,44.65
2019-02-05T01:16:39.961Z,44.84
2019-02-05T01:17:39.968Z,44.94
2019-02-05T01:18:39.972Z,45.13
2019-02-05T01:19:39.978Z,44.56
2019-02-05T01:20:39.982Z,44.65
2019-02-05T01:21:39.983Z,44.94
2019-02-05T01:22:39.989Z,45.22
2019-02-05T01:23:39.992Z,44.27
2019-02-05T01:24:39.996Z,43.62
2019-02-05T01:25:40.001Z,43.80
2019-02-05T01:26:40.005Z,43.71
2019-02-05T01:27:40.010Z,43.15
2019-02-05T01:28:40.012Z,42.96
2019-02-05T01:29:40.024Z,42.48
2019-02-05T01:30:40.022Z,42.01
2019-02-05T01:31:40.026Z,41.44
2019-02-05T01:32:40.033Z,41.54
2019-02-05T01:33:40.036Z,41.73
2019-02-05T01:34:40.039Z,42.20
2019-02-05T01:35:40.043Z,42.20
2019-02-05T01:36:40.048Z,42.11
2019-02-05T01:37:40.057Z,42.11
2019-02-05T01:38:40.058Z,41.92
2019-02-05T01:39:40.060Z,42.20
2019-02-05T01:40:40.065Z,42.86
2019-02-05T01:41:40.073Z,42.77
2019-02-05T01:42:40.075Z,42.67
2019-02-05T01:43:40.080Z,42.77
2019-02-05T01:44:40.080Z,42.86
2019-02-05T01:45:40.084Z,43.15
2019-02-05T01:46:40.092Z,42.96
2019-02-05T01:47:40.094Z,43.43
2019-02-05T01:48:40.099Z,43.62
2019-02-05T01:49:40.123Z,43.99
2019-02-05T01:50:40.107Z,44.56
2019-02-05T01:51:40.111Z,45.13
2019-02-05T01:52:40.115Z,45.60
2019-02-05T01:53:40.119Z,45.03
2019-02-05T01:54:40.125Z,45.22
2019-02-05T01:55:40.131Z,45.13
2019-02-05T01:56:41.019Z,45.22
2019-02-05T01:57:40.137Z,45.22
2019-02-05T01:58:40.143Z,44.46
2019-02-05T01:59:40.229Z,45.13
2019-02-05T02:00:40.151Z,45.13
2019-02-05T02:01:40.157Z,44.56
2019-02-05T02:02:40.158Z,44.37
2019-02-05T02:03:40.164Z,43.90
2019-02-05T02:04:40.167Z,42.77
2019-02-05T02:05:40.172Z,41.06
2019-02-05T02:06:40.180Z,40.03
2019-02-05T02:07:40.183Z,39.46
2019-02-05T02:08:40.187Z,39.09
2019-02-05T02:09:40.189Z,38.90
2019-02-05T02:10:40.192Z,38.42
2019-02-05T02:11:40.197Z,38.90
2019-02-05T02:12:40.205Z,39.18
2019-02-05T02:13:40.207Z,40.22
2019-02-05T02:14:40.212Z,40.12
2019-02-05T02:15:40.218Z,39.37
2019-02-05T02:16:40.219Z,39.56
2019-02-05T02:17:40.223Z,40.03
2019-02-05T02:18:40.230Z,40.41
2019-02-05T02:19:40.235Z,39.18
2019-02-05T02:20:40.239Z,39.09
2019-02-05T02:21:40.241Z,38.99
2019-02-05T02:22:40.246Z,40.03
2019-02-05T02:23:40.251Z,40.88
2019-02-05T02:24:40.253Z,41.63
2019-02-05T02:25:40.261Z,42.11
2019-02-05T02:26:51.588Z,42.77
2019-02-05T02:27:40.270Z,43.80
2019-02-05T02:28:40.273Z,43.80
2019-02-05T02:29:40.278Z,44.37
2019-02-05T02:30:40.281Z,44.27
2019-02-05T02:31:40.289Z,44.56
2019-02-05T02:32:40.294Z,44.27
2019-02-05T02:33:40.299Z,43.62
2019-02-05T02:34:40.301Z,43.15
2019-02-05T02:35:40.305Z,43.43
2019-02-05T02:36:40.307Z,43.90
2019-02-05T02:37:40.317Z,43.90
2019-02-05T02:38:40.319Z,43.90
2019-02-05T02:39:40.328Z,43.90
2019-02-05T02:40:40.327Z,42.86
2019-02-05T02:41:40.338Z,43.05
2019-02-05T02:42:40.338Z,42.96
2019-02-05T02:43:40.342Z,43.62
2019-02-05T02:44:40.347Z,43.24
2019-02-05T02:45:40.351Z,40.69
2019-02-05T02:46:40.354Z,38.14
2019-02-05T02:47:40.381Z,37.57
2019-02-05T02:48:40.363Z,38.80
2019-02-05T02:49:40.407Z,39.56
2019-02-05T02:50:40.385Z,40.22
2019-02-05T02:51:40.379Z,40.41
2019-02-05T02:52:40.380Z,40.12
2019-02-05T02:53:40.398Z,40.03
2019-02-05T02:54:40.389Z,40.03
2019-02-05T02:55:40.394Z,38.71
2019-02-05T02:56:40.399Z,36.72
2019-02-05T02:57:40.401Z,36.07
2019-02-05T02:58:40.406Z,36.54
2019-02-05T02:59:40.412Z,37.01
2019-02-05T03:00:40.415Z,37.85
2019-02-05T03:01:40.426Z,38.52
2019-02-05T03:02:40.427Z,37.48
2019-02-05T03:03:40.440Z,36.07
2019-02-05T03:04:40.436Z,35.88
2019-02-05T03:05:40.443Z,35.97
2019-02-05T03:06:40.445Z,35.88
2019-02-05T03:07:40.450Z,35.97
2019-02-05T03:08:40.451Z,35.59
2019-02-05T03:09:40.457Z,34.83
2019-02-05T03:10:40.461Z,34.83
2019-02-05T03:11:40.466Z,35.21
2019-02-05T03:12:40.473Z,35.12
2019-02-05T03:13:40.473Z,35.40
2019-02-05T03:14:40.490Z,35.59
2019-02-05T03:15:40.489Z,35.59
2019-02-05T03:16:40.486Z,35.40
2019-02-05T03:17:40.493Z,34.83
2019-02-05T03:18:40.500Z,34.65
2019-02-05T03:19:40.500Z,33.70
2019-02-05T03:20:40.508Z,33.61
2019-02-05T03:21:40.508Z,33.70
2019-02-05T03:22:40.517Z,33.51
2019-02-05T03:23:40.521Z,32.95
2019-02-05T03:24:40.522Z,32.86
2019-02-05T03:25:40.526Z,32.95
2019-02-05T03:26:40.552Z,33.42
2019-02-05T03:27:40.541Z,33.61
2019-02-05T03:28:40.545Z,34.08
2019-02-05T03:29:40.544Z,33.70
2019-02-05T03:30:40.711Z,32.48
2019-02-05T03:31:40.559Z,31.91
2019-02-05T03:32:40.568Z,31.91
2019-02-05T03:33:40.563Z,32.76
2019-02-05T03:34:40.568Z,33.80
2019-02-05T03:35:40.576Z,34.46
2019-02-05T03:36:40.578Z,34.36
2019-02-05T03:37:40.581Z,33.61
2019-02-05T03:38:40.590Z,33.70
2019-02-05T03:39:40.601Z,33.14
2019-02-05T03:40:40.596Z,33.61
2019-02-05T03:41:40.599Z,33.70
2019-02-05T03:42:40.609Z,34.46
2019-02-05T03:43:40.612Z,34.55
2019-02-05T03:44:40.614Z,35.31
2019-02-05T03:45:40.620Z,35.40
2019-02-05T03:46:40.632Z,35.21
2019-02-05T03:47:40.631Z,34.83
2019-02-05T03:48:40.634Z,34.74
2019-02-05T03:49:40.635Z,33.98
2019-02-05T03:50:40.643Z,33.70
2019-02-05T03:51:40.645Z,33.51
2019-02-05T03:52:40.651Z,33.80
2019-02-05T03:53:40.656Z,33.80
2019-02-05T03:54:40.659Z,33.51
2019-02-05T03:55:40.669Z,33.42
2019-02-05T03:56:40.674Z,33.70
2019-02-05T03:57:40.677Z,33.51
2019-02-05T03:58:40.686Z,33.70
2019-02-05T03:59:40.683Z,32.57
2019-02-05T04:00:40.687Z,32.10
2019-02-05T04:01:40.691Z,32.19
2019-02-05T04:02:40.695Z,32.76
2019-02-05T04:03:40.701Z,33.04
2019-02-05T04:04:40.706Z,32.86
2019-02-05T04:05:40.712Z,32.95
2019-02-05T04:06:40.717Z,32.95
2019-02-05T04:07:40.721Z,33.42
2019-02-05T04:08:40.727Z,32.76
2019-02-05T04:09:40.728Z,33.04
2019-02-05T04:10:40.737Z,33.33
2019-02-05T04:11:40.739Z,33.42
2019-02-05T04:12:40.741Z,32.48
2019-02-05T04:13:40.744Z,33.04
2019-02-05T04:14:40.762Z,33.51
2019-02-05T04:15:40.755Z,32.95
2019-02-05T04:16:40.759Z,32.00
2019-02-05T04:17:40.763Z,31.34
2019-02-05T04:18:40.767Z,31.44
2019-02-05T04:19:40.772Z,31.81
2019-02-05T04:20:40.785Z,32.76
2019-02-05T04:21:40.786Z,33.33
2019-02-05T04:22:40.790Z,33.14
2019-02-05T04:23:40.791Z,32.67
2019-02-05T04:24:40.794Z,32.29
2019-02-05T04:25:40.816Z,32.19
2019-02-05T04:26:40.808Z,32.38
2019-02-05T04:27:44.984Z,32.29
2019-02-05T04:28:40.812Z,32.86
2019-02-05T04:29:40.851Z,32.57
2019-02-05T04:30:40.824Z,32.67
2019-02-05T04:31:40.827Z,33.33
2019-02-05T04:32:40.830Z,34.27
2019-02-05T04:33:40.833Z,34.27
2019-02-05T04:34:40.842Z,34.36
2019-02-05T04:35:40.848Z,34.46
2019-02-05T04:36:40.849Z,34.74
2019-02-05T04:37:40.851Z,34.55
2019-02-05T04:38:40.856Z,34.17
2019-02-05T04:39:40.860Z,33.61
2019-02-05T04:40:40.864Z,31.63
2019-02-05T04:41:40.870Z,30.96
2019-02-05T04:42:40.877Z,30.21
2019-02-05T04:43:40.882Z,30.49
2019-02-05T04:44:40.885Z,30.02
2019-02-05T04:45:40.887Z,29.93
2019-02-05T04:46:40.889Z,30.49
2019-02-05T04:47:40.897Z,30.49
2019-02-05T04:48:43.567Z,31.06
2019-02-05T04:49:40.905Z,31.06
2019-02-05T04:50:40.907Z,30.68
2019-02-05T04:51:40.911Z,31.25
2019-02-05T04:52:40.914Z,31.15
2019-02-05T04:53:40.925Z,31.53
2019-02-05T04:54:40.927Z,31.44
2019-02-05T04:55:40.930Z,31.81
2019-02-05T04:56:40.938Z,31.63
2019-02-05T04:57:40.938Z,31.63
2019-02-05T04:58:40.943Z,31.44
2019-02-05T04:59:40.947Z,30.87
2019-02-05T05:00:40.949Z,30.21
2019-02-05T05:01:40.961Z,30.02
2019-02-05T05:02:40.958Z,30.11
2019-02-05T05:03:40.970Z,30.40
2019-02-05T05:04:40.997Z,30.96
2019-02-05T05:05:40.972Z,31.25
2019-02-05T05:06:40.975Z,31.15
2019-02-05T05:07:40.982Z,31.06
2019-02-05T05:08:41.018Z,30.68
2019-02-05T05:09:40.993Z,30.49
2019-02-05T05:10:40.992Z,30.49
2019-02-05T05:11:41.328Z,30.49
2019-02-05T05:12:41.005Z,30.49
2019-02-05T05:13:41.009Z,30.30
2019-02-05T05:14:41.009Z,30.96
2019-02-05T05:15:41.018Z,31.06
2019-02-05T05:16:41.020Z,31.53
2019-02-05T05:17:41.027Z,31.34
2019-02-05T05:18:41.028Z,31.25
2019-02-05T05:19:41.032Z,30.87
2019-02-05T05:20:41.038Z,30.49
2019-02-05T05:21:41.041Z,30.40
2019-02-05T05:22:41.051Z,29.55
2019-02-05T05:23:41.056Z,28.98
2019-02-05T05:24:41.053Z,28.79
2019-02-05T05:25:41.056Z,28.89
2019-02-05T05:26:41.061Z,29.46
2019-02-05T05:27:41.068Z,30.02
2019-02-05T05:28:41.068Z,30.21
2019-02-05T05:29:41.073Z,30.02
2019-02-05T05:30:41.082Z,30.02
2019-02-05T05:31:41.091Z,30.21
2019-02-05T05:32:41.085Z,30.87
2019-02-05T05:33:41.091Z,31.25
2019-02-05T05:34:41.095Z,30.87
2019-02-05T05:35:44.488Z,29.64
2019-02-05T05:36:41.103Z,27.85
2019-02-05T05:37:41.107Z,26.34
2019-02-05T05:38:41.236Z,26.43
2019-02-05T05:39:41.121Z,26.53
2019-02-05T05:40:41.123Z,27.19
2019-02-05T05:41:41.126Z,27.94
2019-02-05T05:42:41.133Z,28.70
2019-02-05T05:43:41.139Z,29.83
2019-02-05T05:44:41.139Z,30.77
2019-02-05T05:45:41.175Z,31.81
2019-02-05T05:46:41.147Z,31.63
2019-02-05T05:47:41.158Z,31.72
2019-02-05T05:48:41.154Z,31.81
2019-02-05T05:49:41.158Z,31.72
2019-02-05T05:50:41.170Z,31.81
2019-02-05T05:51:41.172Z,31.44
2019-02-05T05:52:41.178Z,31.53
2019-02-05T05:53:41.186Z,31.44
2019-02-05T05:54:41.185Z,30.96
2019-02-05T05:55:41.186Z,31.06
2019-02-05T05:56:41.189Z,31.53
2019-02-05T05:57:41.198Z,31.81
2019-02-05T05:58:41.197Z,31.44
2019-02-05T05:59:41.304Z,31.06
2019-02-05T06:00:41.207Z,30.49
2019-02-05T06:01:41.213Z,30.11
2019-02-05T06:02:41.221Z,30.21
2019-02-05T06:03:41.221Z,29.64
2019-02-05T06:04:41.222Z,29.46
2019-02-05T06:05:41.227Z,29.74
2019-02-05T06:06:41.261Z,30.11
2019-02-05T06:07:41.237Z,29.74
2019-02-05T06:08:41.242Z,29.83
2019-02-05T06:09:41.246Z,28.70
2019-02-05T06:10:41.252Z,27.19
2019-02-05T06:11:41.257Z,25.40
2019-02-05T06:12:41.258Z,24.64
2019-02-05T06:13:41.260Z,23.88
2019-02-05T06:14:41.264Z,23.69
2019-02-05T06:15:41.273Z,23.79
2019-02-05T06:16:41.275Z,24.07
2019-02-05T06:17:41.277Z,24.54
2019-02-05T06:18:41.283Z,25.49
2019-02-05T06:19:41.287Z,25.49
2019-02-05T06:20:41.295Z,25.68
2019-02-05T06:21:41.297Z,25.68
2019-02-05T06:22:41.298Z,25.96
2019-02-05T06:23:41.307Z,25.68
2019-02-05T06:24:41.310Z,25.40
2019-02-05T06:25:41.311Z,24.54
2019-02-05T06:26:41.315Z,24.26
2019-02-05T06:27:41.320Z,24.92
2019-02-05T06:28:41.324Z,25.96
2019-02-05T06:29:41.330Z,26.62
2019-02-05T06:30:41.336Z,27.28
2019-02-05T06:31:41.340Z,27.66
2019-02-05T06:32:41.340Z,28.04
2019-02-05T06:33:41.357Z,28.70
2019-02-05T06:34:41.350Z,28.61
2019-02-05T06:35:41.360Z,28.79
2019-02-05T06:36:41.358Z,29.17
2019-02-05T06:37:41.366Z,28.79
2019-02-05T06:38:44.492Z,28.70
2019-02-05T06:39:41.372Z,28.98
2019-02-05T06:40:41.374Z,29.46
2019-02-05T06:41:41.381Z,29.27
2019-02-05T06:42:41.383Z,28.98
2019-02-05T06:43:41.390Z,28.89
2019-02-05T06:44:41.391Z,29.17
2019-02-05T06:45:41.774Z,29.46
2019-02-05T06:46:41.402Z,29.64
2019-02-05T06:47:41.404Z,29.55
2019-02-05T06:48:41.474Z,29.74
2019-02-05T06:49:41.413Z,29.55
2019-02-05T06:50:41.419Z,29.83
2019-02-05T06:51:41.423Z,30.30
2019-02-05T06:52:41.424Z,30.49
2019-02-05T06:53:41.429Z,30.21
2019-02-05T06:54:41.434Z,29.83
2019-02-05T06:55:41.440Z,29.36
2019-02-05T06:56:42.462Z,28.23
2019-02-05T06:57:41.446Z,27.85
2019-02-05T06:58:46.570Z,28.04
2019-02-05T06:59:41.456Z,28.70
2019-02-05T07:00:41.458Z,29.55
2019-02-05T07:01:41.465Z,30.21
2019-02-05T07:02:41.469Z,30.87
2019-02-05T07:03:41.476Z,30.68
2019-02-05T07:04:41.476Z,30.40
2019-02-05T07:05:41.485Z,30.40
2019-02-05T07:06:41.484Z,30.68
2019-02-05T07:07:41.490Z,30.96
2019-02-05T07:08:42.524Z,31.91
2019-02-05T07:09:41.498Z,31.72
2019-02-05T07:10:41.500Z,31.81
2019-02-05T07:11:41.507Z,32.19
2019-02-05T07:12:41.593Z,31.53
2019-02-05T07:13:41.518Z,31.15
2019-02-05T07:14:41.522Z,30.87
2019-02-05T07:15:41.522Z,31.25
2019-02-05T07:16:41.524Z,31.06
2019-02-05T07:17:49.337Z,30.96
2019-02-05T07:18:41.534Z,31.25
2019-02-05T07:19:41.542Z,31.72
2019-02-05T07:20:41.545Z,32.48
2019-02-05T07:21:41.551Z,32.48
2019-02-05T07:22:41.550Z,32.19
2019-02-05T07:23:41.558Z,32.10
2019-02-05T07:24:41.560Z,32.19
2019-02-05T07:25:41.563Z,32.10
2019-02-05T07:26:41.567Z,31.25
2019-02-05T07:27:41.571Z,30.21
2019-02-05T07:28:41.575Z,30.02
2019-02-05T07:29:41.580Z,30.02
2019-02-05T07:30:41.717Z,30.68
2019-02-05T07:31:41.589Z,31.15
2019-02-05T07:32:41.597Z,31.63
2019-02-05T07:33:41.598Z,32.29
2019-02-05T07:34:41.602Z,32.29
2019-02-05T07:35:41.613Z,32.48
2019-02-05T07:36:41.614Z,31.81
2019-02-05T07:37:41.616Z,31.91
2019-02-05T07:38:41.619Z,31.81
2019-02-05T07:39:41.625Z,31.72
2019-02-05T07:40:41.627Z,31.53
2019-02-05T07:41:41.634Z,31.15
2019-02-05T07:42:41.635Z,31.34
2019-02-05T07:43:41.641Z,31.44
2019-02-05T07:44:41.647Z,30.96
2019-02-05T07:45:41.648Z,30.40
2019-02-05T07:46:41.657Z,30.30
2019-02-05T07:47:41.658Z,30.68
2019-02-05T07:48:41.661Z,31.06
2019-02-05T07:49:41.671Z,30.40
2019-02-05T07:50:41.673Z,30.96
2019-02-05T07:51:41.678Z,30.96
2019-02-05T07:52:41.680Z,30.58
2019-02-05T07:53:41.684Z,30.30
2019-02-05T07:54:41.686Z,29.83
2019-02-05T07:55:41.691Z,29.83
2019-02-05T07:56:41.717Z,29.74
2019-02-05T07:57:41.701Z,29.74
2019-02-05T07:58:41.705Z,29.93
2019-02-05T07:59:41.713Z,29.64
2019-02-05T08:00:41.716Z,29.83
2019-02-05T08:01:41.716Z,29.83
2019-02-05T08:02:41.723Z,30.02
2019-02-05T08:03:41.725Z,30.21
2019-02-05T08:04:41.729Z,30.40
2019-02-05T08:05:41.736Z,30.58
2019-02-05T08:06:41.744Z,30.49
2019-02-05T08:07:41.745Z,30.58
2019-02-05T08:08:41.752Z,30.49
2019-02-05T08:09:41.751Z,30.77
2019-02-05T08:10:41.755Z,30.02
2019-02-05T08:11:41.879Z,29.27
2019-02-05T08:12:41.763Z,29.74
2019-02-05T08:13:41.768Z,29.64
2019-02-05T08:14:41.773Z,29.74
2019-02-05T08:15:41.789Z,30.21
2019-02-05T08:16:41.783Z,30.68
2019-02-05T08:17:41.791Z,30.87
2019-02-05T08:18:41.792Z,31.06
2019-02-05T08:19:41.796Z,31.25
2019-02-05T08:20:41.800Z,31.15
2019-02-05T08:21:41.808Z,30.02
2019-02-05T08:22:41.809Z,29.28
2019-02-05T08:23:41.818Z,28.71
2019-02-05T08:24:41.821Z,28.52
2019-02-05T08:25:41.822Z,28.15
2019-02-05T08:26:41.827Z,28.52
2019-02-05T08:27:41.833Z,28.62
2019-02-05T08:28:41.841Z,29.66
2019-02-05T08:29:41.843Z,31.26
2019-02-05T08:30:41.849Z,31.94
2019-02-05T08:31:41.856Z,29.68
2019-02-05T08:32:41.857Z,27.59
2019-02-05T08:33:41.863Z,28.35
2019-02-05T08:34:41.873Z,28.73
2019-02-05T08:35:41.871Z,28.82
2019-02-05T08:36:41.875Z,29.11
2019-02-05T08:37:41.880Z,29.49
2019-02-05T08:38:41.887Z,29.11
2019-02-05T08:39:41.892Z,29.22
2019-02-05T08:40:41.902Z,29.79
2019-02-05T08:41:41.903Z,29.22
2019-02-05T08:42:41.908Z,27.42
2019-02-05T08:43:41.914Z,27.14
2019-02-05T08:44:41.918Z,27.14
2019-02-05T08:45:41.926Z,27.23
2019-02-05T08:46:41.931Z,28.08
2019-02-05T08:47:41.936Z,28.36
2019-02-05T08:48:41.946Z,28.85
2019-02-05T08:49:41.947Z,28.66
2019-02-05T08:50:41.961Z,28.57
2019-02-05T08:51:41.968Z,28.76
2019-02-05T08:52:41.969Z,28.38
2019-02-05T08:53:41.971Z,28.47
2019-02-05T08:54:41.977Z,28.76
2019-02-05T08:55:41.986Z,27.44
2019-02-05T08:56:41.993Z,27.53
2019-02-05T08:57:41.996Z,27.15
2019-02-05T08:58:42.003Z,27.15
2019-02-05T08:59:42.007Z,27.16
2019-02-05T09:00:42.021Z,28.30
2019-02-05T09:01:42.020Z,28.77
2019-02-05T09:02:42.027Z,28.77
2019-02-05T09:03:42.036Z,27.64
2019-02-05T09:04:42.040Z,26.97
2019-02-05T09:05:42.048Z,26.59
2019-02-05T09:06:42.051Z,25.74
2019-02-05T09:07:42.061Z,25.56
2019-02-05T09:08:42.064Z,24.89
2019-02-05T09:09:42.072Z,24.89
2019-02-05T09:10:42.078Z,24.32
2019-02-05T09:11:42.085Z,24.23
2019-02-05T09:12:42.094Z,24.51
2019-02-05T09:13:42.102Z,24.61
2019-02-05T09:14:42.110Z,25.47
2019-02-05T09:15:42.115Z,25.37
2019-02-05T09:16:42.121Z,24.23
2019-02-05T09:17:42.128Z,23.47
2019-02-05T09:18:42.133Z,25.47
2019-02-05T09:19:42.141Z,25.76
2019-02-05T09:20:42.154Z,24.33
2019-02-05T09:21:42.157Z,22.53
2019-02-05T09:22:42.164Z,23.77
2019-02-05T09:23:42.170Z,25.09
2019-02-05T09:24:42.177Z,26.42
2019-02-05T09:25:42.184Z,27.75
2019-02-05T09:26:42.194Z,26.51
2019-02-05T09:27:42.198Z,27.27
2019-02-05T09:28:42.241Z,27.27
2019-02-05T09:29:42.213Z,28.41
2019-02-05T09:30:42.230Z,29.73
2019-02-05T09:31:42.228Z,28.33
2019-02-05T09:32:42.238Z,26.15
2019-02-05T09:33:42.243Z,23.11
2019-02-05T09:34:42.251Z,25.39
2019-02-05T09:35:42.262Z,27.28
2019-02-05T09:36:42.267Z,27.66
2019-02-05T09:37:42.273Z,27.19
2019-02-05T09:38:42.284Z,26.43
2019-02-05T09:39:42.328Z,26.05
2019-02-05T09:40:42.298Z,25.58
2019-02-05T09:41:42.308Z,24.44
2019-02-05T09:42:42.315Z,23.49
2019-02-05T09:43:42.322Z,24.44
2019-02-05T09:44:42.331Z,25.29
2019-02-05T09:45:42.337Z,25.96
2019-02-05T09:46:42.346Z,25.67
2019-02-05T09:47:42.353Z,27.47
2019-02-05T09:48:42.363Z,26.53
2019-02-05T09:49:42.371Z,27.47
2019-02-05T09:50:44.995Z,27.47
2019-02-05T09:51:42.395Z,29.19
2019-02-05T09:52:42.397Z,27.49
2019-02-05T09:53:42.403Z,26.54
2019-02-05T09:54:42.427Z,26.35
2019-02-05T09:55:42.420Z,22.46
2019-02-05T09:56:42.430Z,21.80
2019-02-05T09:57:42.437Z,22.56
2019-02-05T09:58:42.449Z,20.76
2019-02-05T09:59:45.442Z,20.19
2019-02-05T10:00:42.462Z,22.76
2019-02-05T10:01:42.473Z,22.66
2019-02-05T10:02:42.482Z,21.72
2019-02-05T10:03:42.495Z,21.62
2019-02-05T10:04:42.501Z,20.86
2019-02-05T10:05:42.509Z,22.00
2019-02-05T10:06:42.520Z,23.14
2019-02-05T10:07:42.528Z,20.68
2019-02-05T10:08:42.543Z,21.15
2019-02-05T10:09:42.545Z,21.73
2019-02-05T10:10:42.560Z,22.77
2019-02-05T10:11:42.569Z,24.10
2019-02-05T10:12:42.574Z,24.96
2019-02-05T10:13:42.589Z,25.15
2019-02-05T10:14:42.594Z,24.51
2019-02-05T10:15:42.604Z,24.22
2019-02-05T10:16:42.614Z,24.03
2019-02-05T10:17:42.623Z,22.32
2019-02-05T10:18:45.756Z,21.57
2019-02-05T10:19:42.646Z,21.84
2019-02-05T10:20:42.655Z,23.27
2019-02-05T10:21:42.669Z,25.07
2019-02-05T10:22:42.678Z,26.50
2019-02-05T10:23:42.689Z,25.82
2019-02-05T10:24:42.699Z,26.03
2019-02-05T10:25:42.713Z,28.02
2019-02-05T10:26:42.719Z,28.97
2019-02-05T10:27:42.735Z,27.45
2019-02-05T10:28:42.743Z,25.94
2019-02-05T10:29:42.752Z,27.75
2019-02-05T10:30:42.764Z,26.79
2019-02-05T10:31:42.777Z,26.70
2019-02-05T10:32:42.785Z,26.78
2019-02-05T10:33:42.797Z,28.40
2019-02-05T10:34:42.809Z,27.83
2019-02-05T10:35:42.821Z,28.68
2019-02-05T10:36:42.835Z,28.77
2019-02-05T10:37:42.846Z,28.96
2019-02-05T10:38:42.856Z,29.73
2019-02-05T10:39:42.866Z,29.63
2019-02-05T10:40:42.878Z,27.73
2019-02-05T10:41:42.892Z,26.50
2019-02-05T10:42:44.210Z,26.69
2019-02-05T10:43:42.914Z,26.66
2019-02-05T10:44:42.924Z,26.95
2019-02-05T10:45:42.938Z,28.56
2019-02-05T10:46:42.950Z,28.85
2019-02-05T10:47:42.962Z,29.89
2019-02-05T10:48:42.976Z,29.24
2019-02-05T10:49:42.991Z,29.41
2019-02-05T10:50:42.997Z,29.62
2019-02-05T10:51:43.009Z,30.55
2019-02-05T10:52:43.022Z,31.04
2019-02-05T10:53:43.036Z,30.57
2019-02-05T10:54:43.047Z,31.33
2019-02-05T10:55:43.059Z,32.18
2019-02-05T10:56:43.071Z,33.34
2019-02-05T10:57:43.084Z,32.01
2019-02-05T10:58:43.097Z,31.92
2019-02-05T10:59:43.107Z,30.11
2019-02-05T11:00:43.120Z,31.44
2019-02-05T11:01:43.139Z,32.01
2019-02-05T11:02:43.151Z,31.71
2019-02-05T11:03:43.159Z,31.23
2019-02-05T11:04:43.172Z,31.90
2019-02-05T11:05:43.186Z,31.99
2019-02-05T11:06:43.195Z,33.15
2019-02-05T11:07:43.211Z,32.39
2019-02-05T11:08:43.223Z,31.05
2019-02-05T11:09:43.236Z,31.84
2019-02-05T11:10:43.246Z,31.07
2019-02-05T11:11:43.259Z,31.05
2019-02-05T11:12:43.269Z,30.40
2019-02-05T11:13:43.287Z,28.68
2019-02-05T11:14:43.299Z,30.31
2019-02-05T11:15:43.310Z,31.44
2019-02-05T11:16:43.324Z,29.90
2019-02-05T11:17:43.335Z,28.88
2019-02-05T11:18:43.351Z,28.59
2019-02-05T11:19:43.360Z,28.59
2019-02-05T11:20:43.374Z,26.70
2019-02-05T11:21:43.387Z,26.12
2019-02-05T11:22:43.404Z,29.08
2019-02-05T11:23:43.414Z,29.85
2019-02-05T11:24:43.428Z,28.72
2019-02-05T11:25:43.441Z,26.64
2019-02-05T11:26:43.455Z,26.24
2019-02-05T11:27:45.763Z,26.24
2019-02-05T11:28:43.481Z,26.53
2019-02-05T11:29:43.494Z,27.56
2019-02-05T11:30:43.509Z,26.69
2019-02-05T11:31:43.523Z,26.59
2019-02-05T11:32:43.537Z,27.81
2019-02-05T11:33:43.547Z,27.91
2019-02-05T11:34:43.562Z,27.73
2019-02-05T11:35:43.573Z,27.81
2019-02-05T11:36:43.589Z,29.33
2019-02-05T11:37:43.606Z,27.83
2019-02-05T11:38:43.683Z,27.83
2019-02-05T11:39:43.628Z,26.58
2019-02-05T11:40:43.644Z,29.24
2019-02-05T11:41:43.658Z,31.42
2019-02-05T11:42:43.668Z,30.68
2019-02-05T11:43:43.685Z,29.53
2019-02-05T11:44:43.695Z,28.41
2019-02-05T11:45:43.710Z,27.65
2019-02-05T11:46:43.723Z,27.56
2019-02-05T11:47:43.739Z,24.79
2019-02-05T11:48:43.755Z,23.57
2019-02-05T11:49:43.763Z,23.46
2019-02-05T11:50:43.776Z,27.07
2019-02-05T11:51:43.793Z,28.78
2019-02-05T11:52:43.804Z,30.22
2019-02-05T11:53:43.824Z,27.92
2019-02-05T11:54:43.835Z,27.73
2019-02-05T11:55:43.846Z,27.55
2019-02-05T11:56:43.861Z,28.97
2019-02-05T11:57:43.873Z,27.64
2019-02-05T11:58:43.890Z,27.56
2019-02-05T11:59:43.900Z,27.65
2019-02-05T12:00:43.916Z,27.65
2019-02-05T12:01:43.929Z,27.48
2019-02-05T12:02:43.942Z,25.56
2019-02-05T12:03:43.955Z,22.52
2019-02-05T12:04:43.972Z,21.56
2019-02-05T12:05:43.987Z,20.31
2019-02-05T12:06:43.998Z,20.61
2019-02-05T12:07:44.013Z,22.69
2019-02-05T12:08:44.026Z,23.35
2019-02-05T12:09:44.042Z,21.75
2019-02-05T12:10:44.053Z,25.26
2019-02-05T12:11:44.066Z,24.90
2019-02-05T12:12:44.081Z,23.20
2019-02-05T12:13:44.094Z,23.02
2019-02-05T12:14:44.110Z,25.70
2019-02-05T12:15:44.123Z,26.35
2019-02-05T12:16:44.136Z,25.40
2019-02-05T12:17:44.156Z,22.92
2019-02-05T12:18:44.167Z,23.77
2019-02-05T12:19:44.180Z,25.65
2019-02-05T12:20:44.195Z,30.33
2019-02-05T12:21:44.206Z,28.90
2019-02-05T12:22:44.222Z,29.74
2019-02-05T12:23:44.238Z,32.14
2019-02-05T12:24:44.248Z,32.42
2019-02-05T12:25:44.263Z,29.85
2019-02-05T12:26:44.278Z,27.76
2019-02-05T12:27:44.294Z,28.13
2019-02-05T12:28:44.309Z,30.71
2019-02-05T12:29:44.322Z,28.90
2019-02-05T12:30:45.655Z,26.70
2019-02-05T12:31:44.351Z,26.98
2019-02-05T12:32:44.365Z,28.79
2019-02-05T12:33:44.379Z,32.51
2019-02-05T12:34:44.396Z,32.23
2019-02-05T12:35:44.409Z,30.63
2019-02-05T12:36:44.422Z,29.14
2019-02-05T12:37:44.439Z,27.90
2019-02-05T12:38:44.451Z,25.90
2019-02-05T12:39:44.466Z,24.47
2019-02-05T12:40:44.488Z,23.34
2019-02-05T12:41:44.497Z,23.61
2019-02-05T12:42:44.511Z,24.66
2019-02-05T12:43:44.528Z,25.42
2019-02-05T12:44:44.542Z,24.47
2019-02-05T12:45:44.556Z,24.57
2019-02-05T12:46:44.570Z,26.09
2019-02-05T12:47:44.586Z,25.90
2019-02-05T12:48:44.600Z,26.65
2019-02-05T12:49:44.616Z,28.45
2019-02-05T12:50:44.635Z,28.83
2019-02-05T12:51:44.648Z,27.69
2019-02-05T12:52:44.661Z,29.01